Portada
METAR-TAF:

METAR-TAF

Aeroports :

Cienfuegos, Cuba

latitud: 22-09N, longitud: 080-24W, altitud: 39 m

Observació

L'informe es va fer fa 34 minuts, a les 21:59 UTC
Vent 9 kt del Sud, variant entre Est i Sud-Oest
Temperatura 30°C
Humitat 66%
Pressió 1011 hPa

METAR: MUCF 242159Z AUTO 17009KT 080V220 30/23 Q1011

Hora: 18:33 (22:33 UTC)

Pronòstic

L'informe es va fer fa 5 hores i 33 minuts, a les 17:00 UTC
Pronòstic vàlid del 24 a les 18 UTC al 25 a les 06 UTC
Vent 12 kt del Sud/Sud-Oest
Visibilitat: 9000 m
Núvols disperses a una alçada de 2000 ft
Evolucionant progressivament
l' 25 a les 01 UTC al 25 a les 03 UTC
Vent 3 kt amb direcció variable

TAF: MUCF 241700Z 2418/2506 20012KT 9000 SCT020 BECMG 2501/2503 VRB03KT

Observacions i pronòstics meteorològics de més de 4000 aeroports (METAR i TAF).

Les estacions disponibles són els punts grocs i vermells al mapa.

Posi el ratolí al punt desitjat per veure el nom de l'estació.

Feu clic per veure les observacions i els pronòstics meteorològics.

Per canviar el mapa: feu clic els botons verds amb una creu de color negre per apropar; al botó verd amb un guió per allunyar la imatge; o en les fletxes verdes per a mapes adjacents.


METAR-TAF: